PWC weather

El Porvenir Airport
Puerto Wilches, Santander Department, Colombia

Public forecast

Using degrees Celsius for public forecast. Weather courtesy of forecast.io.

METAR (pilot weather report)

Report is more than 6 hours old.

Closest report is YariguĂ­es Airport, 21.9 nm (40.6 km) SW. Retrieved 2019/06/16 23:00 UTC (10 hours ago):

SKEJ 162300Z VRB02KT 9999 FEW020 SCT100 27/24 A2977

TAF (pilot weather forecast)

Closest forecast is Palonegro Airport, 25.9 nm (48.0 km) ESE. Retrieved 2019/06/17 06:39 UTC (2 hours ago):

TAF TAF SKBG 170430Z 1706/1806 18005KT 9999 FEW012 SCT080 BECMG 1714/1716 33006KT PROB40 1719/1721 8000 DZ SCT010TCU BKN080 TX26/1719Z TN17/1711Z